默认 日期 大小 文件数 浏览量 最新下载 xml
2013磁力链接相关资源由用户搜索指令自动获取,结果来源于网络,本站不存储任何资料,亦不承担任何责任,请于24小时内删除,搜索到388485个磁力,显示前4000条数据,用时24ms。
    ... ].srt": 87856, "Pacific.Rim.2013.BluRay.1080p.5.1ch.x264 ... eng].srt": 117304, "Pacific.Rim.2013.BluRay.1080p.5.1ch.x264 ... 89423}, "Pacific.Rim.2013.jpg": 300505, "Pacific.Rim.2013.BluRay.1080p.5 ... ganool.mkv": 2139241339, "Pacific.Rim.2013.BluRay.1080p.5.1ch.x264 ...
创建时间: 2018-10-28 13:42:14 大小:1.99 GB 文件数量:7 热度:33 最近下载:2025-01-24 20:19:02
    {"dir100@草榴社区.txt": 12, "dir100@草榴社区.url": 221, "Marionatte.2013.提线木偶.韩语中字.HR-HDTV.mkv": 1271297219}
创建时间: 2018-10-28 13:42:24 大小:1.18 GB 文件数量:3 热度:693 最近下载:2025-10-08 10:25:02
    {"nfo.png": 31494, "folder.jpg": 345511, "FLiCKSiCK.nfo": 3667, "Ida 2013 BluRay 1080p FLiCKSiCK_sample.mp4": 11452602, "Ida 2013 BluRay 1080p x264 Dolby FLiCKSiCK.mp4": 2669999403, "Ida 2013 BluRay 1080p x264 Dolby FLiCKSiCK.srt": 21903}
创建时间: 2018-10-28 13:43:30 大小:2.5 GB 文件数量:6 热度:22 最近下载:2025-08-26 14:07:03
    {"The.Family.2013.US.BDRip.AAC5.1.Eng.mka": 213643419, "The.Family.2013.US.BDRip.x264.AAC5.1.Rus-E76.mkv": 1506104851}
创建时间: 2018-10-28 13:43:46 大小:1.6 GB 文件数量:2 热度:25 最近下载:2024-11-21 14:39:01
    ... .Anniversary.Collection.Bonus.Disc.Only.2013.720p.x264.AC3-Yellow Bus ... .Anniversary.Collection.Bonus.Disc.Only.2013.720p.x264.DTS-Yellow Bus ... .Anniversary.Collection.Bonus.Disc.Only.2013.720p.x264.DTS-Yellow Bus ...
创建时间: 2018-10-28 13:43:56 大小:2.82 GB 文件数量:4 热度:69 最近下载:2025-09-20 20:38:05
    {"Cover.jpg": 127999, "12. Avicii - Edom.mp3": 10688962, "05. Avicii - Dear Boy (feat. Audra Mae).mp3": 11480621, "06. Avicii - Liar Liar (feat. Blondfire).mp3": 5975265, "01. Avicii - Wake Me Up (feat. Aloe Blacc).mp3": 10066465, "03. Avicii - Hey Brother ...
创建时间: 2018-10-28 13:43:59 大小:91.84 MB 文件数量:13 热度:38 最近下载:2025-08-01 07:27:01
    {"MP3": {"RIR-130920-fraterx-hr1.mp3": 41634478, "RIR-130920-fraterx-hr2.mp3": 45154476, "RIR-131113-freeman-hr1.mp3": 41952415, "RIR-131113-freeman-hr2.mp3": 63572890, "RIR-130927-philstanford.mp3": 40705745, "RIR-131104-jasonerb-hr1.mp3": 40666683, "RIR- ...
创建时间: 2018-10-28 13:44:22 大小:2.96 GB 文件数量:78 热度:31 最近下载:2025-08-01 01:09:04
    {"Read Me.txt": 305, "www.torrenting.com.txt": 305, "Dead.Of.Night.2013.S02E03.Favorite.Son.480p.HDTV.x264-mSD.mkv": 203258091, "Dead.Of.Night.2013.S02E03.Favorite.Son.480p.HDTV.x264-mSD.nfo": 1096}
创建时间: 2018-10-28 13:44:53 大小:193.84 MB 文件数量:4 热度:35 最近下载:2025-08-02 06:20:05
    {"Info": {"Info.Tom Clancy's Splinter Cell.Blacklist.Deluxe Edition.v 1.02.txt": 16060}, "soft.bin": 9325090, "setup.exe": 318737, "game-1.bin": 4600977925, "game-2.bin": 19103138, "game-3.bin": 3427432094, "game-4.bin": 2962876314, "autorun.inf": 107, " ...
创建时间: 2018-10-28 13:44:57 大小:12.21 GB 文件数量:11 热度:62 最近下载:2025-08-01 23:14:12
    ... "100-goldie-the_alchemist_the_best_of_1992-2012-cd1-2013.m3u": 578, "200-goldie- ... -goldie-the_alchemist_the_best_of_1992-2012-3cd-flac-2013.log": 12846, "020-goldie- ... -goldie-the_alchemist_the_best_of_1992-2012-3cd-flac-2013.log": 12078, "030-goldie- ...
创建时间: 2018-10-28 13:45:03 大小:1.52 GB 文件数量:50 热度:65 最近下载:2024-12-14 21:58:01
    {"10 Герои Комиксов - Полароид.mp3": 7066190, "12 Герои Комиксов - Нормально.mp3": 12359266, "03 Герои Комиксов - Мешок камней.mp3": 10246213, "05 Герои Комиксов - Позвонить ей.mp3": 8088844, "06 Герои Комиксов - Крути Колесо.mp3": 10618926, "02 Герои ...
创建时间: 2018-10-28 13:45:07 大小:119.04 MB 文件数量:15 热度:12 最近下载:2024-11-21 15:13:01
    {"Films DVDRIP sur www.Cpasbien.me.html": 462, "Films et series sur www.CPASBIEN.me.txt": 57, "[www.Cpasbien.me] logic-dm2.prper-cam.md.avi": 732633678, "Les derniers Film et serie sur Cpasbien.me - cliquez ici !.html": 462}
创建时间: 2018-10-28 13:45:08 大小:698.69 MB 文件数量:4 热度:46 最近下载:2025-08-06 18:12:04
    {"WWW.YTS.AG.jpg": 105827, "Harlock.Space.Pirate.2013.720p.BluRay.x264-[YTS.AG].mp4": 859184521}
创建时间: 2018-10-28 13:45:09 大小:819.48 MB 文件数量:2 热度:14 最近下载:2024-11-21 15:14:02
    ... .nfo": 3689, "The Zero Theorem 2013 BluRay 1080p FLiCKSiCK_sample.mp4": 12452263 ... , "The Zero Theorem 2013 BluRay 1080p x264 DD5.1 ... .mp4": 3243261641, "The Zero Theorem 2013 BluRay 1080p x264 DD5.1 ...
创建时间: 2018-10-28 13:45:18 大小:3.03 GB 文件数量:6 热度:31 最近下载:2025-10-17 09:26:01
    {"NFO.txt": 342, "blow-12year720.mkv": 5870785829}
创建时间: 2018-10-28 13:45:21 大小:5.47 GB 文件数量:2 热度:94 最近下载:2025-09-25 09:10:03
    {"WWW.YIFY-TORRENTS.COM.jpg": 130677, "The.Pirate.Bay.Away.From.Keyboard.2013.1080p.BRrip.x264.GAZ.YIFY.mp4": 1392289461}
创建时间: 2018-10-28 13:45:22 大小:1.3 GB 文件数量:2 热度:17 最近下载:2025-08-03 11:35:04
    {"RARBG.txt": 30, "the.goldbergs.2013.s05e08.internal.720p.web.x264-bamboozle.mkv": 558711048, "the.goldbergs.2013.s05e08.internal.720p.web.x264-bamboozle.nfo": 69}
创建时间: 2018-10-28 13:45:42 大小:532.83 MB 文件数量:3 热度:16 最近下载:2024-11-21 15:27:02
    {"Info": {"Info.The Elder Scrolls 5.Skyrim.Legendary Edition.v 1.9.32.0.8 + 3 DLC.txt": 39890}, "soft.bin": 6075268, "setup.exe": 681635, "game-1.bin": 2000833028, "game-2.bin": 1372996227, "game-3.bin": 1511, "game-4.bin": 909, "game-5.bin": 7247293, " ...
创建时间: 2018-10-28 13:45:50 大小:5 GB 文件数量:13 热度:39 最近下载:2025-08-24 13:31:03
    {"The Railway Man 2013 1080p BrRip x264 YIFY.mp4": 1977402630, "The Railway Man 2013 1080p BrRip x264 YIFY.nfo": 1725, "The Railway Man 2013 1080p BrRip x264 YIFY.srt": 51098}
创建时间: 2018-10-28 13:45:52 大小:1.84 GB 文件数量:3 热度:27 最近下载:2025-07-07 23:26:01
    {"Steve Kimock 10-19-2013.txt": 510, "stevekimock2013-10-19s1t01. ... ": 64160721, "Steve Kimock 10-19-2013 16bit.ffp": 792}
创建时间: 2018-10-28 13:45:59 大小:749.99 MB 文件数量:14 热度:17 最近下载:2025-08-04 21:37:02